KSLO/SLO METAR and TAF weather

Enter ICAO airport designator
Station Type Date Time Source
KSLO METAR 2020/08/15 16:55 UTC NOAA

KSLO 151655Z AUTO 31005KT 10SM SCT029 SCT034 29/24 A2998 RMK AO2 T02910235


Station Type Date Time Source
KSLO Decoded METAR 2020/08/15 16:55 UTC NOAA

Salem, Salem-Leckrone Airport, IL, United States (KSLO) 38-38-34N 088-57-51W 174M
Aug 15, 2020 - 12:55 PM EDT / 2020.08.15 1655 UTC
Wind: from the NW (310 degrees) at 6 MPH (5 KT):0
Visibility: 10 mile(s):0
Sky conditions: partly cloudy
Temperature: 84.4 F (29.1 C)
Dew Point: 74.3 F (23.5 C)
Relative Humidity: 71%
Pressure (altimeter): 29.98 in. Hg (1015 hPa)
ob: KSLO 151655Z AUTO 31005KT 10SM SCT029 SCT034 29/24 A2998 RMK AO2 T02910235
cycle: 17

Station Type Date Time Source
KSLO TAF UTC NOAA

Error!

Example: see airport list